createdAt,value
2023-02-17T00:00:45.832Z,39.88
2023-02-17T00:03:34.109Z,40.92
2023-02-17T00:06:23.732Z,39.05
2023-02-17T00:09:11.961Z,42.97
2023-02-17T00:12:00.273Z,44.50
2023-02-17T00:14:48.471Z,41.10
2023-02-17T00:17:38.083Z,42.55
2023-02-17T00:20:26.339Z,44.55
2023-02-17T00:23:14.880Z,41.55
2023-02-17T00:26:06.519Z,37.42
2023-02-17T00:28:54.973Z,44.25
2023-02-17T00:31:43.393Z,36.83
2023-02-17T00:34:33.436Z,38.38
2023-02-17T00:37:21.647Z,42.95
2023-02-17T00:40:10.454Z,37.83
2023-02-17T00:42:58.668Z,34.85
2023-02-17T00:45:46.891Z,36.65
2023-02-17T00:48:35.177Z,30.58
2023-02-17T00:51:25.688Z,32.80
2023-02-17T00:54:14.120Z,34.17
2023-02-17T00:57:02.408Z,29.50
2023-02-17T00:59:50.596Z,30.15
2023-02-17T01:02:38.887Z,30.25
2023-02-17T01:05:27.151Z,28.58
2023-02-17T01:08:18.092Z,29.10
2023-02-17T01:11:06.591Z,29.63
2023-02-17T01:13:55.714Z,27.60
2023-02-17T01:16:46.604Z,29.90
2023-02-17T01:19:34.878Z,26.00
2023-02-17T01:22:23.117Z,27.40
2023-02-17T01:25:12.745Z,25.23
2023-02-17T01:28:01.029Z,28.73
2023-02-17T01:30:50.180Z,22.48
2023-02-17T01:33:38.862Z,24.17
2023-02-17T01:36:27.589Z,24.08
2023-02-17T01:39:15.995Z,23.38
2023-02-17T01:42:05.605Z,27.02
2023-02-17T01:45:33.824Z,22.80
2023-02-17T01:48:23.876Z,25.00
2023-02-17T01:51:16.928Z,25.67
2023-02-17T01:54:10.980Z,21.35
2023-02-17T01:57:01.506Z,22.08
2023-02-17T01:59:52.030Z,14.20
2023-02-17T02:02:41.221Z,20.63
2023-02-17T02:05:30.212Z,19.70
2023-02-17T02:08:18.569Z,19.73
2023-02-17T02:11:06.984Z,17.75
2023-02-17T02:13:55.624Z,15.43
2023-02-17T02:16:53.145Z,17.98
2023-02-17T02:20:08.489Z,15.98
2023-02-17T02:23:24.143Z,15.18
2023-02-17T02:26:46.830Z,23.27
2023-02-17T02:30:08.317Z,14.80
2023-02-17T02:33:12.571Z,13.48
2023-02-17T02:36:10.516Z,14.50
2023-02-17T02:39:02.230Z,11.90
2023-02-17T02:41:54.536Z,12.82
2023-02-17T02:44:43.131Z,14.10
2023-02-17T02:47:44.495Z,10.93
2023-02-17T02:50:49.332Z,12.40
2023-02-17T02:53:59.914Z,12.55
2023-02-17T03:00:16.103Z,11.90
2023-02-17T03:03:11.813Z,13.25
2023-02-17T03:06:08.221Z,12.32
2023-02-17T03:09:04.153Z,13.45
2023-02-17T03:11:53.421Z,10.30
2023-02-17T03:14:44.297Z,10.07
2023-02-17T03:17:33.773Z,13.07
2023-02-17T03:20:22.169Z,11.55
2023-02-17T03:23:11.754Z,11.30
2023-02-17T03:25:59.976Z,10.73
2023-02-17T03:28:48.156Z,12.15
2023-02-17T03:31:36.722Z,13.68
2023-02-17T03:34:25.029Z,11.65
2023-02-17T03:37:13.242Z,11.27
2023-02-17T03:40:02.910Z,11.45
2023-02-17T03:42:51.150Z,10.80
2023-02-17T03:45:39.450Z,11.93
2023-02-17T03:48:27.864Z,10.75
2023-02-17T03:51:18.549Z,11.40
2023-02-17T03:54:07.241Z,12.15
2023-02-17T03:56:56.811Z,13.38
2023-02-17T03:59:45.083Z,13.23
2023-02-17T04:02:33.318Z,12.35
2023-02-17T04:05:21.512Z,12.98
2023-02-17T04:08:09.746Z,15.00
2023-02-17T04:11:00.547Z,17.25
2023-02-17T04:13:50.142Z,16.25
2023-02-17T04:16:39.196Z,19.40
2023-02-17T04:19:27.532Z,16.80
2023-02-17T04:22:15.719Z,16.10
2023-02-17T04:25:03.947Z,17.13
2023-02-17T04:27:52.171Z,18.77
2023-02-17T04:30:44.415Z,17.73
2023-02-17T04:33:32.688Z,19.88
2023-02-17T04:36:20.944Z,17.45
2023-02-17T04:39:09.143Z,20.27
2023-02-17T04:41:57.458Z,16.55
2023-02-17T04:44:45.691Z,16.13
2023-02-17T04:47:35.249Z,17.92
2023-02-17T04:50:24.030Z,16.60
2023-02-17T04:53:14.011Z,16.50
2023-02-17T04:56:02.215Z,17.90
2023-02-17T04:58:50.481Z,17.30
2023-02-17T05:01:39.141Z,16.60
2023-02-17T05:04:28.790Z,15.32
2023-02-17T05:07:17.029Z,18.45
2023-02-17T05:10:05.574Z,14.85
2023-02-17T05:12:53.877Z,19.85
2023-02-17T05:15:44.526Z,16.33
2023-02-17T05:18:32.797Z,15.82
2023-02-17T05:21:22.355Z,17.25
2023-02-17T05:24:10.530Z,14.18
2023-02-17T05:26:58.764Z,14.13
2023-02-17T05:29:47.069Z,14.23
2023-02-17T05:32:35.307Z,15.75
2023-02-17T05:35:23.642Z,13.90
2023-02-17T05:38:13.272Z,15.35
2023-02-17T05:41:01.479Z,12.98
2023-02-17T05:43:49.821Z,14.50
2023-02-17T05:46:38.139Z,12.95
2023-02-17T05:49:26.454Z,13.40
2023-02-17T05:52:14.794Z,13.95
2023-02-17T05:55:05.405Z,13.60
2023-02-17T05:57:53.916Z,14.10
2023-02-17T06:00:42.124Z,14.38
2023-02-17T06:03:30.367Z,11.57
2023-02-17T06:06:18.612Z,13.32
2023-02-17T06:09:06.886Z,12.07
2023-02-17T06:11:56.488Z,11.90
2023-02-17T06:14:44.721Z,12.13
2023-02-17T06:17:32.966Z,13.60
2023-02-17T06:20:21.439Z,12.77
2023-02-17T06:23:09.711Z,12.02
2023-02-17T06:25:57.991Z,10.65
2023-02-17T06:28:47.599Z,11.55
2023-02-17T06:31:35.941Z,11.70
2023-02-17T06:34:24.203Z,10.57
2023-02-17T06:37:12.497Z,12.88
2023-02-17T06:40:00.887Z,11.45
2023-02-17T06:42:49.440Z,12.60
2023-02-17T06:45:39.102Z,12.98
2023-02-17T06:48:27.435Z,10.73
2023-02-17T06:51:15.768Z,11.20
2023-02-17T06:54:04.071Z,11.32
2023-02-17T06:56:52.251Z,12.63
2023-02-17T06:59:40.478Z,21.95
2023-02-17T07:02:30.334Z,11.80
2023-02-17T07:05:18.838Z,12.40
2023-02-17T07:08:07.618Z,9.60
2023-02-17T07:10:55.851Z,11.88
2023-02-17T07:13:44.914Z,10.90
2023-02-17T07:16:33.291Z,9.73
2023-02-17T07:19:22.902Z,10.40
2023-02-17T07:22:11.146Z,9.90
2023-02-17T07:24:59.369Z,9.73
2023-02-17T07:27:47.798Z,11.48
2023-02-17T07:30:38.968Z,10.02
2023-02-17T07:33:27.201Z,10.10
2023-02-17T07:36:18.382Z,8.77
2023-02-17T07:39:07.107Z,11.60
2023-02-17T07:42:00.594Z,11.75
2023-02-17T07:44:48.872Z,9.93
2023-02-17T07:47:37.124Z,14.43
2023-02-17T07:50:25.354Z,11.40
2023-02-17T07:53:14.889Z,11.13
2023-02-17T07:56:04.232Z,9.82
2023-02-17T07:58:52.825Z,11.18
2023-02-17T08:01:41.339Z,12.65
2023-02-17T08:04:29.605Z,13.10
2023-02-17T08:07:17.849Z,12.25
2023-02-17T08:10:26.772Z,13.38
2023-02-17T08:13:21.412Z,12.05
2023-02-17T08:16:09.841Z,11.02
2023-02-17T08:18:58.761Z,11.20
2023-02-17T08:21:47.308Z,12.43
2023-02-17T08:24:35.570Z,12.20
2023-02-17T08:27:25.575Z,12.25
2023-02-17T08:30:14.638Z,13.70
2023-02-17T08:33:02.933Z,10.82
2023-02-17T08:35:51.189Z,11.95
2023-02-17T08:38:40.082Z,15.27
2023-02-17T08:41:31.295Z,13.43
2023-02-17T08:44:22.333Z,12.60
2023-02-17T08:49:58.901Z,13.95
2023-02-17T08:52:47.785Z,13.75
2023-02-17T08:55:48.677Z,13.80
2023-02-17T08:58:37.868Z,11.73
2023-02-17T09:01:27.705Z,14.40
2023-02-17T09:04:16.479Z,13.35
2023-02-17T09:07:04.958Z,12.60
2023-02-17T09:09:53.213Z,12.30
2023-02-17T09:12:41.722Z,12.40
2023-02-17T09:15:30.908Z,12.20
2023-02-17T09:18:21.106Z,11.60
2023-02-17T09:21:10.919Z,13.20
2023-02-17T09:23:59.248Z,13.82
2023-02-17T09:26:47.629Z,11.75
2023-02-17T09:29:37.467Z,11.90
2023-02-17T09:32:25.852Z,12.30
2023-02-17T09:35:16.938Z,13.15
2023-02-17T09:38:05.362Z,10.65
2023-02-17T09:40:53.730Z,11.88
2023-02-17T09:43:41.930Z,11.50
2023-02-17T09:46:33.726Z,10.35
2023-02-17T09:49:27.671Z,13.80
2023-02-17T09:52:25.086Z,12.38
2023-02-17T09:55:17.674Z,9.38
2023-02-17T09:58:11.908Z,11.65
2023-02-17T10:01:04.336Z,11.60
2023-02-17T10:03:57.015Z,10.80
2023-02-17T10:06:48.409Z,9.70
2023-02-17T10:09:45.569Z,10.80
2023-02-17T10:12:38.679Z,8.95
2023-02-17T10:15:31.963Z,10.05
2023-02-17T10:18:27.573Z,10.75
2023-02-17T10:21:22.188Z,10.98
2023-02-17T10:24:11.108Z,8.73
2023-02-17T10:27:23.876Z,7.20
2023-02-17T10:30:30.074Z,8.45
2023-02-17T10:33:26.853Z,7.93
2023-02-17T10:36:25.709Z,8.18
2023-02-17T10:39:16.893Z,8.88
2023-02-17T10:42:08.055Z,7.50
2023-02-17T10:45:01.472Z,6.60
2023-02-17T10:47:49.986Z,7.90
2023-02-17T10:50:39.198Z,6.82
2023-02-17T10:53:32.492Z,7.18
2023-02-17T10:56:25.751Z,7.95
2023-02-17T10:59:22.782Z,7.30
2023-02-17T11:02:19.240Z,7.18
2023-02-17T11:05:07.780Z,10.35
2023-02-17T11:07:59.037Z,6.97
2023-02-17T11:10:47.315Z,7.00
2023-02-17T11:13:38.136Z,5.65
2023-02-17T11:16:30.550Z,10.73
2023-02-17T11:19:26.161Z,5.15
2023-02-17T11:22:32.591Z,5.43
2023-02-17T11:25:23.525Z,4.85
2023-02-17T11:31:03.083Z,4.78
2023-02-17T11:33:53.613Z,5.77
2023-02-17T11:39:39.398Z,4.40
2023-02-17T11:42:29.982Z,5.55
2023-02-17T11:45:23.059Z,4.20
2023-02-17T11:48:35.048Z,3.88
2023-02-17T11:51:32.968Z,3.63
2023-02-17T11:54:29.238Z,18.77
2023-02-17T11:57:30.880Z,7.25
2023-02-17T12:00:22.584Z,5.88
2023-02-17T12:03:52.862Z,4.30
2023-02-17T12:06:54.436Z,6.00
2023-02-17T12:09:54.424Z,2.83
2023-02-17T12:13:01.805Z,3.20
2023-02-17T12:16:03.660Z,4.07
2023-02-17T12:19:02.750Z,3.85
2023-02-17T12:22:02.677Z,3.50
2023-02-17T12:25:16.080Z,6.63
2023-02-17T12:28:23.964Z,4.03
2023-02-17T12:31:22.724Z,2.95
2023-02-17T12:34:21.154Z,2.85
2023-02-17T12:37:18.676Z,4.38
2023-02-17T12:40:17.059Z,2.50
2023-02-17T12:43:15.211Z,3.22
2023-02-17T12:46:07.756Z,4.45
2023-02-17T12:49:00.820Z,2.38
2023-02-17T12:51:52.920Z,3.70
2023-02-17T12:54:49.237Z,3.65
2023-02-17T12:57:43.700Z,2.72
2023-02-17T13:00:37.463Z,2.83
2023-02-17T13:03:26.105Z,3.53
2023-02-17T13:06:24.972Z,3.72
2023-02-17T13:09:24.910Z,3.42
2023-02-17T13:12:31.549Z,3.55
2023-02-17T13:15:29.963Z,2.58
2023-02-17T13:18:29.765Z,4.18
2023-02-17T13:21:28.603Z,2.60
2023-02-17T13:24:32.991Z,2.75
2023-02-17T13:27:32.051Z,3.95
2023-02-17T13:30:31.139Z,2.83
2023-02-17T13:33:31.508Z,3.50
2023-02-17T13:36:34.482Z,2.70
2023-02-17T13:39:35.555Z,4.63
2023-02-17T13:42:38.112Z,3.90
2023-02-17T13:45:29.579Z,3.25
2023-02-17T13:48:26.895Z,3.05
2023-02-17T13:51:27.199Z,2.63
2023-02-17T13:54:24.355Z,4.22
2023-02-17T13:57:27.437Z,5.07
2023-02-17T14:00:24.551Z,5.75
2023-02-17T14:03:19.227Z,3.45
2023-02-17T14:06:11.754Z,3.85
2023-02-17T14:09:00.535Z,4.35
2023-02-17T14:11:48.901Z,5.32
2023-02-17T14:14:39.246Z,5.60
2023-02-17T14:17:32.814Z,5.35
2023-02-17T14:20:30.275Z,4.07
2023-02-17T14:23:18.485Z,4.70
2023-02-17T14:26:12.040Z,6.93
2023-02-17T14:29:01.884Z,6.75
2023-02-17T14:31:53.235Z,6.35
2023-02-17T14:34:42.963Z,6.20
2023-02-17T14:37:33.607Z,6.18
2023-02-17T14:40:24.925Z,5.57
2023-02-17T14:43:13.240Z,6.15
2023-02-17T14:46:01.823Z,8.35
2023-02-17T14:48:51.590Z,7.85
2023-02-17T14:51:41.192Z,9.52
2023-02-17T14:54:30.626Z,10.13
2023-02-17T14:57:20.336Z,11.85
2023-02-17T15:00:13.198Z,8.40
2023-02-17T15:03:01.444Z,10.73
2023-02-17T15:05:50.445Z,12.65
2023-02-17T15:08:40.033Z,9.10
2023-02-17T15:11:32.047Z,9.80
2023-02-17T15:14:21.895Z,10.23
2023-02-17T15:17:10.623Z,11.20
2023-02-17T15:19:58.844Z,10.00
2023-02-17T15:22:47.583Z,12.10
2023-02-17T15:25:37.176Z,10.02
2023-02-17T15:28:25.789Z,12.35
2023-02-17T15:31:16.572Z,11.27
2023-02-17T15:34:10.276Z,10.05
2023-02-17T15:36:58.539Z,11.60
2023-02-17T15:39:46.957Z,10.80
2023-02-17T15:42:36.573Z,11.25
2023-02-17T15:45:25.721Z,11.90
2023-02-17T15:48:23.241Z,12.73
2023-02-17T15:51:15.032Z,12.68
2023-02-17T15:54:03.338Z,11.55
2023-02-17T15:56:53.702Z,12.18
2023-02-17T15:59:43.336Z,12.80
2023-02-17T16:02:31.723Z,12.40
2023-02-17T16:05:21.714Z,11.77
2023-02-17T16:08:10.341Z,11.98
2023-02-17T16:10:58.608Z,11.38
2023-02-17T16:13:48.518Z,11.00
2023-02-17T16:16:38.140Z,10.70
2023-02-17T16:19:26.576Z,12.32
2023-02-17T16:22:14.786Z,11.05
2023-02-17T16:25:03.382Z,9.70
2023-02-17T16:27:53.118Z,9.93
2023-02-17T16:30:41.653Z,9.07
2023-02-17T16:33:31.275Z,8.40
2023-02-17T16:36:22.113Z,8.77
2023-02-17T16:39:14.336Z,10.30
2023-02-17T16:42:02.585Z,7.95
2023-02-17T16:44:50.825Z,8.43
2023-02-17T16:47:39.044Z,8.30
2023-02-17T16:50:30.204Z,7.20
2023-02-17T16:53:18.458Z,5.63
2023-02-17T16:56:16.783Z,5.70
2023-02-17T16:59:05.803Z,5.80
2023-02-17T17:01:54.722Z,7.07
2023-02-17T17:04:42.923Z,7.00
2023-02-17T17:07:33.194Z,5.57
2023-02-17T17:10:25.738Z,6.57
2023-02-17T17:13:16.440Z,5.82
2023-02-17T17:16:05.034Z,8.38
2023-02-17T17:18:53.924Z,6.60
2023-02-17T17:21:42.189Z,10.15
2023-02-17T17:24:31.745Z,5.32
2023-02-17T17:27:19.970Z,5.15
2023-02-17T17:30:19.147Z,5.15
2023-02-17T17:33:07.371Z,6.82
2023-02-17T17:35:55.620Z,5.82
2023-02-17T17:38:43.836Z,5.57
2023-02-17T17:41:34.042Z,7.38
2023-02-17T17:44:22.304Z,6.15
2023-02-17T17:47:24.738Z,6.07
2023-02-17T17:50:20.541Z,7.60
2023-02-17T17:53:09.292Z,5.72
2023-02-17T17:55:57.523Z,4.90
2023-02-17T17:58:47.139Z,3.58
2023-02-17T18:01:35.613Z,6.40
2023-02-17T18:04:23.887Z,5.53
2023-02-17T18:07:12.183Z,5.70
2023-02-17T18:10:02.438Z,10.77
2023-02-17T18:12:51.947Z,9.38
2023-02-17T18:15:42.627Z,10.98
2023-02-17T18:18:31.861Z,7.72
2023-02-17T18:21:20.120Z,7.45
2023-02-17T18:24:08.760Z,6.60
2023-02-17T18:26:57.162Z,11.48
2023-02-17T18:29:45.811Z,6.32
2023-02-17T18:32:35.348Z,7.60
2023-02-17T18:35:23.661Z,5.18
2023-02-17T18:38:12.279Z,6.55
2023-02-17T18:41:00.482Z,6.63
2023-02-17T18:43:49.189Z,6.65
2023-02-17T18:46:39.084Z,7.57
2023-02-17T18:49:30.117Z,7.35
2023-02-17T18:52:18.687Z,10.88
2023-02-17T18:55:08.293Z,8.45
2023-02-17T18:57:57.515Z,12.32
2023-02-17T19:00:45.771Z,5.78
2023-02-17T19:03:34.015Z,11.93
2023-02-17T19:06:25.734Z,9.45
2023-02-17T19:09:13.937Z,9.35
2023-02-17T19:12:02.199Z,12.23
2023-02-17T19:14:53.215Z,7.55
2023-02-17T19:20:29.924Z,11.18
2023-02-17T19:23:19.460Z,9.23
2023-02-17T19:26:09.687Z,6.38
2023-02-17T19:28:58.035Z,8.45
2023-02-17T19:31:46.313Z,7.57
2023-02-17T19:34:35.388Z,7.00
2023-02-17T19:37:24.341Z,8.70
2023-02-17T19:40:14.044Z,9.55
2023-02-17T19:43:02.328Z,6.90
2023-02-17T19:45:50.743Z,8.18
2023-02-17T19:48:39.061Z,8.95
2023-02-17T19:51:27.261Z,7.88
2023-02-17T19:54:15.536Z,8.73
2023-02-17T19:57:05.111Z,10.38
2023-02-17T19:59:53.348Z,7.53
2023-02-17T20:02:41.604Z,6.05
2023-02-17T20:05:31.715Z,11.88
2023-02-17T20:08:19.938Z,3.28
2023-02-17T20:11:10.354Z,8.35
2023-02-17T20:14:01.333Z,9.85
2023-02-17T20:16:50.012Z,7.15
2023-02-17T20:19:38.870Z,6.75
2023-02-17T20:22:27.521Z,5.38
2023-02-17T20:25:15.731Z,9.38
2023-02-17T20:28:03.967Z,6.55
2023-02-17T20:30:53.567Z,7.78
2023-02-17T20:33:42.314Z,8.05
2023-02-17T20:36:30.543Z,7.07
2023-02-17T20:39:19.891Z,3.42
2023-02-17T20:42:08.266Z,7.00
2023-02-17T20:44:56.853Z,5.18
2023-02-17T20:47:46.572Z,6.57
2023-02-17T20:50:35.207Z,4.72
2023-02-17T20:53:23.860Z,7.32
2023-02-17T20:56:15.077Z,4.55
2023-02-17T20:59:03.646Z,6.18
2023-02-17T21:01:51.953Z,4.60
2023-02-17T21:04:41.509Z,7.05
2023-02-17T21:07:29.768Z,6.13
2023-02-17T21:10:21.059Z,7.40
2023-02-17T21:13:09.332Z,6.05
2023-02-17T21:15:57.562Z,7.43
2023-02-17T21:18:47.155Z,8.48
2023-02-17T21:21:37.141Z,7.53
2023-02-17T21:24:25.619Z,5.85
2023-02-17T21:27:13.897Z,8.82
2023-02-17T21:30:02.324Z,10.55
2023-02-17T21:32:50.618Z,8.73
2023-02-17T21:35:38.999Z,6.57
2023-02-17T21:38:28.578Z,7.47
2023-02-17T21:41:18.749Z,11.98
2023-02-17T21:44:24.400Z,12.03
2023-02-17T21:47:12.724Z,8.65
2023-02-17T21:50:01.141Z,11.88
2023-02-17T21:52:49.394Z,4.30
2023-02-17T21:55:39.215Z,7.95
2023-02-17T21:58:27.722Z,7.30
2023-02-17T22:01:16.861Z,7.18
2023-02-17T22:04:05.584Z,5.22
2023-02-17T22:06:53.851Z,8.25
2023-02-17T22:09:42.062Z,8.57
2023-02-17T22:12:31.680Z,7.90
2023-02-17T22:15:20.077Z,5.72
2023-02-17T22:18:08.410Z,5.20
2023-02-17T22:20:56.704Z,5.13
2023-02-17T22:23:45.694Z,8.98
2023-02-17T22:26:33.931Z,11.52
2023-02-17T22:29:23.587Z,14.50
2023-02-17T22:32:11.860Z,8.55
2023-02-17T22:35:00.190Z,9.45
2023-02-17T22:37:48.486Z,4.60
2023-02-17T22:40:40.015Z,6.90
2023-02-17T22:43:28.249Z,5.40
2023-02-17T22:46:19.965Z,4.90
2023-02-17T22:49:08.293Z,6.15
2023-02-17T22:51:56.556Z,8.68
2023-02-17T22:54:45.069Z,5.93
2023-02-17T22:57:33.355Z,6.40
2023-02-17T23:00:21.781Z,9.38
2023-02-17T23:03:11.420Z,7.90
2023-02-17T23:06:01.323Z,9.02
2023-02-17T23:08:51.133Z,14.27
2023-02-17T23:11:54.860Z,5.10
2023-02-17T23:14:43.181Z,6.45
2023-02-17T23:17:51.929Z,10.27
2023-02-17T23:20:44.177Z,8.55
2023-02-17T23:23:32.414Z,6.32
2023-02-17T23:26:20.666Z,6.30
2023-02-17T23:29:09.609Z,9.45
2023-02-17T23:31:58.058Z,8.20
2023-02-17T23:34:46.386Z,5.38
2023-02-17T23:37:35.960Z,11.20
2023-02-17T23:40:24.193Z,6.53
2023-02-17T23:43:12.395Z,5.97
2023-02-17T23:46:00.879Z,5.22
2023-02-17T23:48:49.227Z,7.93
2023-02-17T23:51:37.473Z,6.85
2023-02-17T23:54:27.580Z,7.25
2023-02-17T23:57:15.830Z,5.27
